Time;durP1;ratioP1;P1;durP2;ratioP2;P2;SDS_P1;SDS_P2;PMS_P1;PMS_P2;Temp;Humidity;BMP_temperature;BMP_pressure;BME280_temperature;BME280_humidity;BME280_pressure;Samples;Min_cycle;Max_cycle;Signal;HPM_P1;HPM_P2
2023/10/24 00:01:23;;;;;;;11.10;6.60;;;10.20;99.90;;;;;;5110155;28;20044;-68
2023/10/24 00:03:48;;;;;;;13.27;7.43;;;10.20;99.90;;;;;;5101283;28;20040;-68
2023/10/24 00:06:15;;;;;;;10.23;6.50;;;10.20;99.90;;;;;;5074122;28;20041;-68
2023/10/24 00:08:41;;;;;;;10.02;6.65;;;10.20;99.90;;;;;;5094214;28;20036;-68
2023/10/24 00:11:07;;;;;;;12.18;6.88;;;10.30;99.90;;;;;;5102496;28;20051;-68
2023/10/24 00:13:33;;;;;;;15.05;8.15;;;10.30;99.90;;;;;;5106476;28;20104;-68
2023/10/24 00:16:00;;;;;;;11.73;7.07;;;10.30;99.90;;;;;;5100831;28;20466;-68
2023/10/24 00:18:26;;;;;;;12.38;6.78;;;10.30;99.90;;;;;;5082782;28;20127;-68
2023/10/24 00:20:52;;;;;;;13.82;6.63;;;10.30;99.90;;;;;;5097246;28;20040;-69
2023/10/24 00:23:18;;;;;;;15.27;7.20;;;10.20;99.90;;;;;;5111343;28;20032;-69
2023/10/24 00:25:44;;;;;;;12.00;6.70;;;10.30;99.90;;;;;;5098920;28;20032;-69
2023/10/24 00:28:10;;;;;;;12.10;5.90;;;10.30;99.90;;;;;;5104314;28;20124;-68
2023/10/24 00:30:36;;;;;;;10.15;6.63;;;10.30;99.90;;;;;;5084783;28;20062;-68
2023/10/24 00:33:02;;;;;;;12.35;7.20;;;10.30;99.90;;;;;;5102448;28;20138;-69
2023/10/24 00:35:28;;;;;;;12.88;7.15;;;10.30;99.90;;;;;;5086377;28;20066;-68
2023/10/24 00:37:54;;;;;;;10.75;7.25;;;10.30;99.90;;;;;;5095894;28;20043;-68
2023/10/24 00:40:19;;;;;;;13.27;7.40;;;10.30;99.90;;;;;;5071647;28;20036;-69
2023/10/24 00:42:45;;;;;;;11.02;7.10;;;10.30;99.90;;;;;;5076209;28;20048;-68
2023/10/24 00:45:11;;;;;;;11.60;7.45;;;10.30;99.90;;;;;;5082652;28;20043;-69
2023/10/24 00:47:38;;;;;;;9.95;6.10;;;10.40;99.90;;;;;;5085563;28;20036;-69
2023/10/24 00:50:07;;;;;;;8.73;5.93;;;10.40;99.90;;;;;;5072750;28;20036;-68
2023/10/24 00:52:34;;;;;;;10.52;6.53;;;10.30;99.90;;;;;;5082135;28;20063;-68
2023/10/24 00:55:02;;;;;;;12.13;7.47;;;10.40;99.90;;;;;;5105626;28;20027;-68
2023/10/24 00:57:28;;;;;;;11.05;6.85;;;10.40;99.90;;;;;;5085640;28;20101;-68
2023/10/24 00:59:55;;;;;;;10.80;6.85;;;10.40;99.90;;;;;;5093122;28;20032;-67
2023/10/24 01:02:21;;;;;;;10.95;7.25;;;10.40;99.90;;;;;;5100252;28;20036;-68
2023/10/24 01:04:47;;;;;;;10.80;6.95;;;10.40;99.90;;;;;;5079856;28;20081;-68
2023/10/24 01:07:13;;;;;;;12.93;7.35;;;10.40;99.90;;;;;;5106108;28;20046;-67
2023/10/24 01:09:39;;;;;;;10.85;6.90;;;10.40;99.90;;;;;;5102507;28;20036;-68
2023/10/24 01:12:06;;;;;;;12.90;6.80;;;10.60;99.90;;;;;;5087547;28;20040;-69
2023/10/24 01:14:32;;;;;;;8.50;6.05;;;10.40;99.90;;;;;;5101181;28;20047;-68
2023/10/24 01:16:58;;;;;;;9.45;6.20;;;10.40;99.90;;;;;;5113131;28;20458;-69
2023/10/24 01:19:24;;;;;;;9.75;6.70;;;10.40;99.90;;;;;;5111299;28;20050;-68
2023/10/24 01:21:50;;;;;;;9.60;6.22;;;10.40;99.90;;;;;;5099614;28;20072;-69
2023/10/24 01:24:17;;;;;;;10.60;5.80;;;10.50;99.90;;;;;;5083685;28;20040;-69
2023/10/24 01:26:43;;;;;;;9.35;5.75;;;10.50;99.90;;;;;;5082445;28;20084;-68
2023/10/24 01:29:10;;;;;;;7.97;5.47;;;10.50;99.90;;;;;;5099239;28;20056;-68
2023/10/24 01:31:36;;;;;;;9.77;6.07;;;10.50;99.90;;;;;;5104405;28;20089;-68
2023/10/24 01:34:02;;;;;;;9.95;6.18;;;10.50;99.90;;;;;;5103244;28;20071;-69
2023/10/24 01:36:27;;;;;;;8.95;6.00;;;10.50;99.90;;;;;;5082775;28;20048;-69
2023/10/24 01:38:53;;;;;;;10.15;6.15;;;10.50;99.90;;;;;;5096724;28;20078;-69
2023/10/24 01:41:19;;;;;;;10.13;5.68;;;10.50;99.90;;;;;;5100747;28;20069;-68
2023/10/24 01:43:45;;;;;;;9.10;5.85;;;10.50;99.90;;;;;;5069436;28;20043;-68
2023/10/24 01:46:11;;;;;;;11.27;6.15;;;10.50;99.90;;;;;;5113356;28;20049;-68
2023/10/24 01:48:36;;;;;;;8.13;5.68;;;10.70;99.90;;;;;;5115178;28;20036;-69
2023/10/24 01:51:02;;;;;;;10.18;6.70;;;10.50;99.90;;;;;;5102388;28;20036;-69
2023/10/24 01:53:28;;;;;;;8.20;5.60;;;10.50;99.90;;;;;;5086214;28;20037;-68
2023/10/24 01:55:54;;;;;;;9.02;5.75;;;10.60;99.90;;;;;;5106588;28;20127;-69
2023/10/24 01:58:20;;;;;;;10.43;6.18;;;10.60;99.90;;;;;;5113706;28;20127;-69
2023/10/24 02:00:45;;;;;;;13.30;5.88;;;10.60;99.90;;;;;;5085167;28;20092;-68
2023/10/24 02:03:11;;;;;;;9.85;6.05;;;10.60;99.90;;;;;;5086836;28;20437;-68
2023/10/24 02:05:38;;;;;;;11.18;6.00;;;10.60;99.90;;;;;;5098785;28;20048;-68
2023/10/24 02:08:04;;;;;;;8.30;5.78;;;10.60;99.90;;;;;;5117138;28;20051;-69
2023/10/24 02:10:30;;;;;;;8.23;5.80;;;10.60;99.90;;;;;;5089702;28;20036;-68
2023/10/24 02:12:56;;;;;;;10.70;6.60;;;10.60;99.90;;;;;;5098686;28;20522;-69
2023/10/24 02:15:22;;;;;;;9.32;6.00;;;10.70;99.90;;;;;;5101681;28;20091;-68
2023/10/24 02:17:47;;;;;;;11.52;6.57;;;10.70;99.90;;;;;;5102928;28;20032;-68
2023/10/24 02:20:13;;;;;;;10.05;5.68;;;10.60;99.90;;;;;;5095560;28;20055;-68
2023/10/24 02:22:39;;;;;;;9.82;5.88;;;10.70;99.90;;;;;;5089121;28;20365;-67
2023/10/24 02:25:06;;;;;;;8.00;5.78;;;10.70;99.90;;;;;;5102390;28;20039;-68
2023/10/24 02:27:34;;;;;;;11.93;6.28;;;10.70;99.90;;;;;;5092803;28;20056;-68
2023/10/24 02:30:01;;;;;;;10.93;6.25;;;10.70;99.90;;;;;;5093616;28;20043;-67
2023/10/24 02:32:27;;;;;;;10.23;6.30;;;10.70;99.90;;;;;;5100577;28;20051;-69
2023/10/24 02:34:52;;;;;;;11.07;6.03;;;10.70;99.90;;;;;;5095633;28;20111;-69
2023/10/24 02:37:18;;;;;;;10.65;6.40;;;10.70;99.90;;;;;;5084240;28;20040;-68
2023/10/24 02:39:44;;;;;;;9.93;6.60;;;10.70;99.90;;;;;;5081743;28;20119;-68
2023/10/24 02:42:10;;;;;;;10.70;6.32;;;10.80;99.90;;;;;;5068946;28;20035;-69
2023/10/24 02:44:35;;;;;;;9.85;6.32;;;10.70;99.90;;;;;;5085265;28;20412;-68
2023/10/24 02:47:01;;;;;;;9.73;5.97;;;10.70;99.90;;;;;;5086003;28;20056;-68
2023/10/24 02:49:27;;;;;;;12.63;6.93;;;10.80;99.90;;;;;;5092268;28;20115;-69
2023/10/24 02:51:52;;;;;;;9.57;6.22;;;10.80;99.90;;;;;;5049438;28;20059;-69
2023/10/24 02:54:18;;;;;;;10.45;6.40;;;10.80;99.90;;;;;;5092371;28;20115;-69
2023/10/24 02:56:44;;;;;;;10.50;6.70;;;10.80;99.90;;;;;;5084404;28;20122;-69
2023/10/24 02:59:09;;;;;;;9.18;5.78;;;10.80;99.90;;;;;;5083623;28;20519;-68
2023/10/24 03:01:35;;;;;;;10.43;6.63;;;10.80;99.90;;;;;;5073611;28;20621;-70
2023/10/24 03:04:01;;;;;;;10.10;6.43;;;10.80;99.90;;;;;;5086300;28;20044;-68
2023/10/24 03:06:27;;;;;;;10.13;6.13;;;10.80;99.90;;;;;;5065240;28;20044;-69
2023/10/24 03:08:52;;;;;;;10.75;7.22;;;10.80;99.90;;;;;;5078017;28;20430;-69
2023/10/24 03:11:25;;;;;;;11.73;6.95;;;10.80;99.90;;;;;;5084933;28;20032;-70
2023/10/24 03:13:55;;;;;;;10.82;6.32;;;10.80;99.90;;;;;;5101287;28;20048;-68
2023/10/24 03:16:21;;;;;;;11.27;7.45;;;10.80;99.90;;;;;;5088883;28;20053;-69
2023/10/24 03:18:47;;;;;;;10.70;6.68;;;10.80;99.90;;;;;;5067842;28;20051;-67
2023/10/24 03:21:13;;;;;;;11.15;7.13;;;10.80;99.90;;;;;;5080876;28;20040;-69
2023/10/24 03:23:44;;;;;;;12.48;7.20;;;10.80;99.90;;;;;;5094639;28;20051;-69
2023/10/24 03:26:10;;;;;;;12.77;7.35;;;10.80;99.90;;;;;;5092309;28;20043;-68
2023/10/24 03:28:36;;;;;;;11.90;7.10;;;10.80;99.90;;;;;;5098742;28;20044;-69
2023/10/24 03:31:06;;;;;;;10.35;6.90;;;10.80;99.90;;;;;;5099910;28;20063;-69
2023/10/24 03:33:33;;;;;;;9.85;6.72;;;10.90;99.90;;;;;;5096916;28;20097;-69
2023/10/24 03:36:00;;;;;;;9.70;6.80;;;10.90;99.90;;;;;;5098004;28;20043;-68
2023/10/24 03:38:27;;;;;;;9.85;7.13;;;10.90;99.90;;;;;;5087386;28;20043;-68
2023/10/24 03:40:53;;;;;;;10.15;6.40;;;10.90;99.90;;;;;;5107036;28;20119;-68
2023/10/24 03:43:20;;;;;;;11.23;7.03;;;11.00;99.90;;;;;;5090781;28;20047;-68
2023/10/24 03:45:45;;;;;;;12.80;7.60;;;11.00;99.90;;;;;;5115127;28;20051;-68
2023/10/24 03:48:14;;;;;;;10.90;7.18;;;11.00;99.90;;;;;;5099103;28;20040;-67
2023/10/24 03:50:41;;;;;;;11.90;7.30;;;11.00;99.90;;;;;;5109975;28;20114;-68
2023/10/24 03:53:07;;;;;;;11.00;7.40;;;11.10;99.90;;;;;;5104228;28;20061;-68
2023/10/24 03:55:35;;;;;;;11.07;7.40;;;11.10;99.90;;;;;;5087061;28;20068;-67
2023/10/24 03:58:01;;;;;;;12.00;7.78;;;11.10;99.90;;;;;;5115917;28;20032;-68
2023/10/24 04:00:27;;;;;;;11.68;7.80;;;11.10;99.90;;;;;;5113721;28;20042;-68
2023/10/24 04:02:56;;;;;;;11.38;7.43;;;11.10;99.90;;;;;;5083098;28;20040;-67
2023/10/24 04:05:22;;;;;;;11.45;8.25;;;11.10;99.90;;;;;;5098321;28;20035;-67
2023/10/24 04:07:48;;;;;;;13.25;8.35;;;11.10;99.90;;;;;;5087915;28;20115;-67
2023/10/24 04:10:15;;;;;;;12.63;8.43;;;11.10;99.90;;;;;;5101776;28;20046;-68
2023/10/24 04:12:41;;;;;;;11.73;8.02;;;11.10;99.90;;;;;;5092743;28;20074;-68
2023/10/24 04:15:08;;;;;;;11.93;8.30;;;11.10;99.90;;;;;;5066398;28;20040;-68
2023/10/24 04:17:34;;;;;;;13.23;7.45;;;11.10;99.90;;;;;;5087555;28;20063;-69
2023/10/24 04:20:00;;;;;;;10.90;7.03;;;11.20;99.90;;;;;;5108343;28;20085;-69
2023/10/24 04:22:26;;;;;;;10.75;6.55;;;11.20;99.90;;;;;;5121872;28;20040;-68
2023/10/24 04:24:51;;;;;;;8.27;6.63;;;11.20;99.90;;;;;;5093714;28;20044;-70
2023/10/24 04:27:17;;;;;;;9.32;6.90;;;11.20;99.90;;;;;;5073215;28;20036;-69
2023/10/24 04:29:44;;;;;;;9.32;6.20;;;11.20;99.90;;;;;;5106071;28;20044;-68
2023/10/24 04:32:10;;;;;;;9.52;6.45;;;11.30;99.90;;;;;;5110163;28;20048;-68
2023/10/24 04:34:35;;;;;;;9.18;6.00;;;11.30;99.90;;;;;;5099672;28;20046;-68
2023/10/24 04:37:01;;;;;;;9.95;6.57;;;11.20;99.90;;;;;;5066694;28;20530;-68
2023/10/24 04:39:29;;;;;;;8.77;5.97;;;11.30;99.90;;;;;;5086253;28;20047;-68
2023/10/24 04:41:54;;;;;;;7.93;5.60;;;11.30;99.90;;;;;;5081690;28;20052;-68
2023/10/24 04:44:20;;;;;;;9.30;6.00;;;11.30;99.90;;;;;;5083219;28;20043;-68
2023/10/24 04:46:46;;;;;;;8.13;5.85;;;11.30;99.90;;;;;;5058677;28;20062;-68
2023/10/24 04:49:12;;;;;;;9.00;5.97;;;11.30;99.90;;;;;;5091613;28;20043;-69
2023/10/24 04:51:38;;;;;;;7.97;5.93;;;11.30;99.90;;;;;;5082025;28;20040;-68
2023/10/24 04:54:04;;;;;;;7.57;6.10;;;11.30;99.90;;;;;;5100949;28;20116;-68
2023/10/24 04:56:29;;;;;;;8.02;5.57;;;11.30;99.90;;;;;;5058144;28;20047;-68
2023/10/24 04:58:56;;;;;;;9.20;6.05;;;11.30;99.90;;;;;;5101227;28;20063;-68
2023/10/24 05:01:22;;;;;;;9.25;6.40;;;11.30;99.90;;;;;;5104372;28;20066;-69
2023/10/24 05:03:48;;;;;;;9.75;6.70;;;11.30;99.90;;;;;;5098442;28;20043;-68
2023/10/24 05:06:13;;;;;;;8.05;6.00;;;11.30;99.90;;;;;;5102689;28;20059;-68
2023/10/24 05:08:40;;;;;;;8.18;5.82;;;11.30;99.90;;;;;;5068395;28;20036;-69
2023/10/24 05:11:05;;;;;;;9.32;6.05;;;11.30;99.90;;;;;;5114948;28;20150;-68
2023/10/24 05:13:31;;;;;;;7.43;5.78;;;11.40;99.90;;;;;;5107358;28;20035;-69
2023/10/24 05:15:57;;;;;;;8.38;5.05;;;11.40;99.90;;;;;;5089432;28;20069;-69
2023/10/24 05:18:24;;;;;;;7.78;5.50;;;11.40;99.90;;;;;;5093147;28;20047;-68
2023/10/24 05:20:50;;;;;;;7.10;5.35;;;11.40;99.90;;;;;;5085319;28;20040;-69
2023/10/24 05:23:16;;;;;;;8.80;5.00;;;11.30;99.90;;;;;;5093960;28;20130;-68
2023/10/24 05:25:42;;;;;;;6.43;4.88;;;11.30;99.90;;;;;;5082388;28;20042;-69
2023/10/24 05:28:08;;;;;;;6.70;4.63;;;11.30;99.90;;;;;;5070109;28;20051;-69
2023/10/24 05:30:36;;;;;;;8.85;5.20;;;11.20;99.90;;;;;;5106189;28;20036;-69
2023/10/24 05:33:03;;;;;;;8.32;5.40;;;11.20;99.90;;;;;;5090597;28;20048;-69
2023/10/24 05:35:29;;;;;;;9.48;4.88;;;11.20;99.90;;;;;;5086903;28;20040;-68
2023/10/24 05:37:55;;;;;;;6.80;5.15;;;11.20;99.90;;;;;;5087114;28;20043;-69
2023/10/24 05:40:21;;;;;;;6.57;4.45;;;11.20;99.90;;;;;;5077050;28;20174;-69
2023/10/24 05:42:47;;;;;;;6.05;4.72;;;11.20;99.90;;;;;;5102669;28;20048;-69
2023/10/24 05:45:12;;;;;;;5.70;4.18;;;11.10;99.90;;;;;;5085585;28;20047;-69
2023/10/24 05:47:38;;;;;;;6.85;4.53;;;11.10;99.90;;;;;;5085853;28;20099;-69
2023/10/24 05:50:04;;;;;;;7.18;4.60;;;11.10;99.90;;;;;;5089073;28;20088;-69
2023/10/24 05:52:31;;;;;;;6.68;4.22;;;11.10;99.90;;;;;;5107796;28;20094;-68
2023/10/24 05:54:57;;;;;;;7.97;4.22;;;11.10;99.90;;;;;;5084540;28;20055;-69
2023/10/24 05:57:23;;;;;;;8.40;4.97;;;11.10;99.90;;;;;;5086397;28;20036;-69
2023/10/24 05:59:50;;;;;;;5.75;4.07;;;11.10;99.90;;;;;;5084613;28;20036;-69
2023/10/24 06:02:19;;;;;;;5.90;4.30;;;11.20;99.90;;;;;;5104223;28;20040;-68
2023/10/24 06:04:44;;;;;;;7.43;4.93;;;11.20;99.90;;;;;;5089221;28;20042;-68
2023/10/24 06:07:10;;;;;;;7.25;4.78;;;11.20;99.90;;;;;;5104677;28;20036;-68
2023/10/24 06:09:36;;;;;;;8.70;5.07;;;11.20;99.90;;;;;;5114508;28;20044;-68
2023/10/24 06:12:02;;;;;;;7.18;5.22;;;11.10;99.90;;;;;;5102660;28;20495;-68
2023/10/24 06:14:27;;;;;;;6.63;4.97;;;11.10;99.90;;;;;;5086055;28;20048;-68
2023/10/24 06:16:53;;;;;;;7.65;5.38;;;11.20;99.90;;;;;;5118745;28;20043;-68
2023/10/24 06:19:19;;;;;;;7.38;5.35;;;11.10;99.90;;;;;;5105209;28;20403;-68
2023/10/24 06:21:45;;;;;;;7.75;5.30;;;11.10;99.90;;;;;;5083796;28;20351;-68
2023/10/24 06:24:11;;;;;;;7.13;4.65;;;11.10;99.90;;;;;;5084612;28;20059;-68
2023/10/24 06:26:36;;;;;;;8.05;4.88;;;11.20;99.90;;;;;;5088501;28;20066;-68
2023/10/24 06:29:02;;;;;;;6.72;4.60;;;11.20;99.90;;;;;;5102521;28;20546;-68
2023/10/24 06:31:29;;;;;;;6.00;4.38;;;11.20;99.90;;;;;;5092634;28;20040;-67
2023/10/24 06:33:54;;;;;;;6.57;4.63;;;11.20;99.90;;;;;;5107897;28;20071;-67
2023/10/24 06:36:21;;;;;;;6.30;4.38;;;11.20;99.90;;;;;;5088234;28;20067;-68
2023/10/24 06:38:47;;;;;;;7.10;4.35;;;11.20;99.90;;;;;;5083546;28;20032;-68
2023/10/24 06:41:13;;;;;;;6.50;4.30;;;11.20;99.90;;;;;;5099598;28;20040;-68
2023/10/24 06:43:39;;;;;;;6.72;4.15;;;11.20;99.90;;;;;;5102863;28;20036;-68
2023/10/24 06:46:05;;;;;;;6.35;4.45;;;11.20;99.90;;;;;;5101924;28;20044;-67
2023/10/24 06:48:31;;;;;;;8.48;4.72;;;11.20;99.90;;;;;;5116593;28;20039;-67
2023/10/24 06:50:58;;;;;;;7.40;4.30;;;11.20;99.90;;;;;;5101728;28;20040;-67
2023/10/24 06:53:24;;;;;;;5.72;4.03;;;11.20;99.90;;;;;;5103074;28;20122;-67
2023/10/24 06:55:50;;;;;;;6.47;3.88;;;11.20;99.90;;;;;;5083601;28;20032;-67
2023/10/24 06:58:15;;;;;;;5.80;3.88;;;11.30;99.90;;;;;;5102661;28;20036;-67
2023/10/24 07:00:43;;;;;;;6.72;4.40;;;11.30;99.90;;;;;;5113995;28;20063;-68
2023/10/24 07:03:08;;;;;;;5.85;3.92;;;11.30;99.90;;;;;;5102215;28;20111;-68
2023/10/24 07:05:34;;;;;;;6.60;4.38;;;11.30;99.90;;;;;;5059465;28;20078;-68
2023/10/24 07:08:00;;;;;;;6.32;4.20;;;11.30;99.90;;;;;;5105066;28;20036;-68
2023/10/24 07:10:25;;;;;;;5.40;3.80;;;11.30;99.90;;;;;;5066248;28;20074;-68
2023/10/24 07:12:51;;;;;;;5.18;3.72;;;11.30;99.90;;;;;;5062819;28;20039;-67
2023/10/24 07:15:17;;;;;;;5.60;3.78;;;11.30;99.90;;;;;;5106374;27;20054;-68
2023/10/24 07:17:43;;;;;;;6.10;4.32;;;11.30;99.90;;;;;;5111553;28;20173;-67
2023/10/24 07:20:09;;;;;;;6.82;4.07;;;11.20;99.90;;;;;;5114868;28;20149;-68
2023/10/24 07:22:35;;;;;;;6.70;3.85;;;11.30;99.90;;;;;;5109493;28;20044;-67
2023/10/24 07:25:01;;;;;;;5.78;4.40;;;11.20;99.90;;;;;;5100522;28;20036;-67
2023/10/24 07:27:26;;;;;;;5.68;4.03;;;11.30;99.90;;;;;;5083742;28;20399;-69
2023/10/24 07:29:52;;;;;;;4.82;3.70;;;11.30;99.90;;;;;;5082319;28;20134;-68
2023/10/24 07:32:18;;;;;;;4.93;3.72;;;11.30;99.90;;;;;;5097910;28;20052;-70
2023/10/24 07:34:44;;;;;;;5.38;3.83;;;11.30;99.90;;;;;;5090109;28;20051;-69
2023/10/24 07:37:10;;;;;;;5.70;4.18;;;11.30;99.90;;;;;;5102286;28;20055;-68
2023/10/24 07:39:36;;;;;;;6.10;4.25;;;11.40;99.90;;;;;;5098940;28;20032;-68
2023/10/24 07:42:02;;;;;;;5.63;4.15;;;11.30;99.90;;;;;;5098768;28;20067;-68
2023/10/24 07:44:28;;;;;;;5.97;4.07;;;11.30;99.90;;;;;;5110412;28;20051;-69
2023/10/24 07:46:54;;;;;;;5.57;3.88;;;11.30;99.90;;;;;;5099599;28;20044;-67
2023/10/24 07:49:21;;;;;;;6.53;4.13;;;11.30;99.90;;;;;;5097445;28;20039;-67
2023/10/24 07:51:47;;;;;;;5.28;3.83;;;11.30;99.90;;;;;;5103847;28;20083;-66
2023/10/24 07:54:12;;;;;;;5.47;3.97;;;11.20;99.90;;;;;;5094373;28;20032;-67
2023/10/24 07:56:39;;;;;;;5.90;4.28;;;11.30;99.90;;;;;;5083359;28;20044;-67
2023/10/24 07:59:07;;;;;;;6.35;4.18;;;11.20;99.90;;;;;;5081676;28;20377;-67
2023/10/24 08:01:33;;;;;;;6.50;4.90;;;11.30;99.90;;;;;;5084474;28;20100;-67
2023/10/24 08:03:59;;;;;;;6.50;4.28;;;11.30;99.90;;;;;;5099344;28;20043;-67
2023/10/24 08:06:25;;;;;;;5.93;4.32;;;11.30;99.90;;;;;;5103471;28;20100;-66
2023/10/24 08:08:51;;;;;;;6.22;4.20;;;11.30;99.90;;;;;;5105645;27;20040;-66
2023/10/24 08:11:17;;;;;;;6.32;4.43;;;11.30;99.90;;;;;;5107305;27;20129;-67
2023/10/24 08:13:42;;;;;;;5.53;3.97;;;11.30;99.90;;;;;;5107608;28;20455;-67
2023/10/24 08:16:08;;;;;;;8.45;5.00;;;11.40;99.90;;;;;;5075052;28;20032;-66
2023/10/24 08:18:34;;;;;;;7.60;5.13;;;11.30;99.90;;;;;;5107726;28;20070;-67
2023/10/24 08:21:00;;;;;;;6.00;4.63;;;11.30;99.90;;;;;;5103215;28;20050;-67
2023/10/24 08:23:30;;;;;;;7.80;4.65;;;11.30;99.90;;;;;;5111530;28;20640;-67
2023/10/24 08:25:56;;;;;;;6.55;4.07;;;11.30;99.90;;;;;;5099170;28;20070;-66
2023/10/24 08:28:23;;;;;;;7.78;4.75;;;11.30;99.90;;;;;;5099747;28;20052;-68
2023/10/24 08:30:48;;;;;;;8.50;4.47;;;11.30;99.90;;;;;;5113642;27;20365;-67
2023/10/24 08:33:16;;;;;;;7.30;4.82;;;11.30;99.90;;;;;;5099001;28;20059;-67
2023/10/24 08:35:43;;;;;;;6.22;4.15;;;11.30;99.90;;;;;;5100312;28;20059;-66
2023/10/24 08:38:08;;;;;;;7.00;4.50;;;11.40;99.90;;;;;;5087106;28;20549;-66
2023/10/24 08:40:34;;;;;;;8.23;4.70;;;11.40;99.90;;;;;;5088807;28;20043;-66
2023/10/24 08:43:01;;;;;;;6.57;4.18;;;11.40;99.90;;;;;;5105961;28;20230;-68
2023/10/24 08:45:28;;;;;;;6.78;4.50;;;11.30;99.90;;;;;;5111293;28;20067;-66
2023/10/24 08:47:55;;;;;;;7.88;5.00;;;11.30;99.90;;;;;;5101250;28;20046;-67
2023/10/24 08:50:20;;;;;;;6.78;5.07;;;11.30;99.90;;;;;;5109401;28;20119;-66
2023/10/24 08:52:46;;;;;;;7.13;4.55;;;11.40;99.90;;;;;;5100892;28;20512;-66
2023/10/24 08:55:12;;;;;;;7.07;4.93;;;11.40;99.90;;;;;;5088561;28;20135;-66
2023/10/24 08:57:42;;;;;;;7.53;5.20;;;11.40;99.90;;;;;;5117241;28;20036;-67
2023/10/24 09:00:10;;;;;;;7.03;4.78;;;11.40;99.90;;;;;;5099325;28;20040;-65
2023/10/24 09:02:38;;;;;;;6.45;4.50;;;11.40;99.90;;;;;;5099885;28;20040;-67
2023/10/24 09:05:05;;;;;;;6.80;5.05;;;11.40;99.90;;;;;;5110784;28;20043;-67
2023/10/24 09:07:31;;;;;;;6.85;4.97;;;11.50;99.90;;;;;;5099599;28;20040;-68
2023/10/24 09:09:56;;;;;;;7.35;4.65;;;11.50;99.90;;;;;;5111263;28;20464;-67
2023/10/24 09:12:23;;;;;;;7.70;4.63;;;11.50;99.90;;;;;;5098342;28;20044;-68
2023/10/24 09:14:49;;;;;;;6.25;4.15;;;11.50;99.90;;;;;;5080788;28;20503;-67
2023/10/24 09:17:16;;;;;;;7.57;4.65;;;11.50;99.90;;;;;;5080675;28;20047;-67
2023/10/24 09:19:42;;;;;;;5.53;3.95;;;11.50;99.90;;;;;;5101955;28;20111;-67
2023/10/24 09:22:09;;;;;;;5.53;4.00;;;11.50;99.90;;;;;;5104410;28;20055;-68
2023/10/24 09:24:37;;;;;;;6.00;4.13;;;11.50;99.90;;;;;;5098657;28;20040;-67
2023/10/24 09:27:03;;;;;;;5.43;4.20;;;11.50;99.90;;;;;;5081906;28;20061;-68
2023/10/24 09:29:31;;;;;;;6.80;3.83;;;11.60;99.90;;;;;;5098085;28;20161;-68
2023/10/24 09:31:58;;;;;;;5.28;4.07;;;11.60;99.90;;;;;;5110026;28;20062;-67
2023/10/24 09:34:24;;;;;;;4.65;3.50;;;11.60;99.90;;;;;;5110694;28;20056;-66
2023/10/24 09:36:50;;;;;;;5.80;3.63;;;11.60;99.90;;;;;;5102244;28;20062;-67
2023/10/24 09:39:16;;;;;;;5.38;3.80;;;11.70;99.90;;;;;;5101885;28;20040;-68
2023/10/24 09:41:49;;;;;;;5.68;3.58;;;11.70;99.90;;;;;;5094220;28;20093;-67
2023/10/24 09:44:16;;;;;;;5.03;3.33;;;11.70;99.90;;;;;;5114440;28;20110;-68
2023/10/24 09:46:43;;;;;;;4.70;3.47;;;11.70;99.90;;;;;;5118727;28;20407;-68
2023/10/24 09:49:10;;;;;;;4.38;3.00;;;11.60;99.90;;;;;;5104472;28;20071;-67
2023/10/24 09:51:35;;;;;;;4.30;2.83;;;11.60;99.90;;;;;;5081742;28;20113;-66
2023/10/24 09:54:03;;;;;;;4.72;3.28;;;11.60;99.90;;;;;;5105550;28;20052;-68
2023/10/24 09:56:29;;;;;;;4.90;3.35;;;11.60;99.90;;;;;;5107124;28;20491;-66
2023/10/24 09:58:55;;;;;;;5.65;3.42;;;11.60;99.90;;;;;;5105322;28;20093;-67
2023/10/24 10:01:22;;;;;;;5.70;3.58;;;11.60;99.90;;;;;;5103614;28;20044;-67
2023/10/24 10:03:53;;;;;;;5.45;3.40;;;11.50;99.90;;;;;;5083541;28;20044;-67
2023/10/24 10:06:19;;;;;;;5.20;2.75;;;11.50;99.90;;;;;;5103128;28;20039;-66
2023/10/24 10:08:48;;;;;;;4.78;3.28;;;11.50;99.90;;;;;;5113656;28;20095;-67
2023/10/24 10:11:14;;;;;;;4.60;3.60;;;11.60;99.90;;;;;;5103796;28;20071;-68
2023/10/24 10:14:03;;;;;;;5.28;3.67;;;11.60;99.90;;;;;;5094337;28;20044;-68
2023/10/24 10:17:03;;;;;;;4.25;3.00;;;11.60;99.90;;;;;;5116025;28;20048;-66
2023/10/24 10:19:31;;;;;;;4.30;2.83;;;11.50;99.90;;;;;;5084166;28;20057;-67
2023/10/24 10:22:35;;;;;;;4.47;3.25;;;11.60;99.90;;;;;;5113597;28;20047;-66
2023/10/24 10:25:35;;;;;;;5.07;3.25;;;11.60;99.90;;;;;;5083698;28;20051;-67
2023/10/24 10:28:11;;;;;;;5.15;3.65;;;11.60;99.90;;;;;;5108186;28;20336;-67
2023/10/24 10:30:47;;;;;;;4.70;3.33;;;11.60;99.90;;;;;;5085143;28;20079;-66
2023/10/24 10:33:18;;;;;;;5.60;3.25;;;11.60;99.90;;;;;;5100784;28;20072;-66
2023/10/24 10:35:56;;;;;;;6.13;3.42;;;11.60;99.90;;;;;;5114097;28;20059;-66
2023/10/24 10:38:37;;;;;;;5.35;3.60;;;11.60;99.90;;;;;;5101254;28;20052;-66
2023/10/24 10:41:23;;;;;;;5.10;3.25;;;11.70;99.90;;;;;;5119027;28;20058;-66
2023/10/24 10:43:53;;;;;;;4.90;3.08;;;11.70;99.90;;;;;;5102911;28;20048;-66
2023/10/24 10:46:25;;;;;;;4.78;3.20;;;11.60;99.90;;;;;;5101015;28;20401;-66
2023/10/24 10:48:51;;;;;;;4.40;3.10;;;11.70;99.90;;;;;;5117720;28;20095;-66
2023/10/24 10:51:23;;;;;;;5.40;3.80;;;11.70;99.90;;;;;;5103190;28;20050;-66
2023/10/24 10:54:00;;;;;;;6.05;3.35;;;11.70;99.90;;;;;;5111494;28;20073;-66
2023/10/24 10:56:33;;;;;;;6.63;3.72;;;11.80;99.90;;;;;;5101789;28;20073;-66
2023/10/24 10:59:04;;;;;;;4.85;3.35;;;11.80;99.90;;;;;;5083990;28;20078;-66
2023/10/24 11:01:45;;;;;;;4.95;3.10;;;11.80;99.90;;;;;;5106700;28;20510;-66
2023/10/24 11:04:14;;;;;;;6.20;3.55;;;11.90;99.90;;;;;;5107393;28;20047;-66
2023/10/24 11:06:53;;;;;;;4.53;3.15;;;12.00;99.90;;;;;;5087830;28;20040;-66
2023/10/24 11:09:20;;;;;;;5.72;3.50;;;12.10;99.90;;;;;;5101455;28;20082;-65
2023/10/24 11:11:47;;;;;;;5.80;4.03;;;12.20;99.90;;;;;;5096020;28;20047;-66
2023/10/24 11:14:19;;;;;;;5.90;4.22;;;12.20;99.90;;;;;;5100426;27;20039;-66
2023/10/24 11:16:48;;;;;;;5.65;4.00;;;12.30;99.90;;;;;;5111648;27;20059;-66
2023/10/24 11:19:27;;;;;;;6.25;4.25;;;12.40;99.90;;;;;;5101763;28;20044;-66
2023/10/24 11:21:57;;;;;;;5.63;3.70;;;12.50;99.90;;;;;;5095127;28;20056;-66
2023/10/24 11:24:23;;;;;;;6.65;4.57;;;12.50;99.90;;;;;;5081834;28;20059;-66
2023/10/24 11:27:04;;;;;;;5.88;4.55;;;12.60;99.90;;;;;;5083602;28;20075;-68
2023/10/24 11:29:30;;;;;;;7.40;4.93;;;12.50;99.90;;;;;;5106675;28;20044;-68
2023/10/24 11:31:58;;;;;;;6.20;4.03;;;12.50;99.90;;;;;;5103638;28;20076;-68
2023/10/24 11:34:24;;;;;;;6.25;4.43;;;12.60;99.90;;;;;;5086157;28;20075;-66
2023/10/24 11:36:51;;;;;;;6.80;5.00;;;12.60;99.90;;;;;;5103492;28;20062;-68
2023/10/24 11:39:16;;;;;;;6.03;4.45;;;12.70;99.90;;;;;;5102079;28;20039;-66
2023/10/24 11:41:43;;;;;;;6.78;4.38;;;12.70;99.90;;;;;;5119553;28;20061;-66
2023/10/24 11:44:12;;;;;;;6.60;4.88;;;12.80;99.90;;;;;;5103377;28;20093;-66
2023/10/24 11:46:39;;;;;;;6.35;4.60;;;12.90;99.90;;;;;;5106676;28;20079;-68
2023/10/24 11:49:05;;;;;;;6.78;5.00;;;12.90;99.90;;;;;;5107268;28;20028;-68
2023/10/24 11:51:30;;;;;;;6.50;4.63;;;12.90;99.90;;;;;;5082505;28;20047;-67
2023/10/24 11:54:03;;;;;;;6.88;5.15;;;12.80;99.90;;;;;;5082175;28;20035;-67
2023/10/24 11:56:30;;;;;;;7.95;4.53;;;12.80;99.90;;;;;;5082802;28;20048;-67
2023/10/24 11:58:57;;;;;;;6.18;4.80;;;12.70;99.90;;;;;;5100013;28;20066;-66
2023/10/24 12:01:29;;;;;;;6.60;4.65;;;12.70;99.90;;;;;;5100450;28;20074;-66
2023/10/24 12:03:56;;;;;;;6.75;4.35;;;12.60;99.90;;;;;;5107174;28;20059;-66
2023/10/24 12:06:22;;;;;;;6.78;4.30;;;12.60;99.90;;;;;;5101098;28;20048;-67
2023/10/24 12:08:49;;;;;;;7.00;4.30;;;12.60;99.90;;;;;;5119679;28;20085;-66
2023/10/24 12:11:15;;;;;;;6.43;5.22;;;12.60;99.90;;;;;;5101277;28;20135;-66
2023/10/24 12:13:41;;;;;;;6.53;4.93;;;12.60;99.90;;;;;;5101281;28;20070;-66
2023/10/24 12:16:08;;;;;;;8.35;4.80;;;12.60;99.90;;;;;;5099384;28;20504;-66
2023/10/24 12:18:34;;;;;;;6.75;4.55;;;12.70;99.90;;;;;;5101405;28;20050;-67
2023/10/24 12:20:59;;;;;;;6.88;4.82;;;12.90;99.90;;;;;;5100307;28;20032;-67
2023/10/24 12:23:26;;;;;;;6.63;4.25;;;12.90;99.90;;;;;;5108918;28;20507;-67
2023/10/24 12:25:54;;;;;;;5.70;4.57;;;13.00;99.90;;;;;;5106464;28;20261;-66
2023/10/24 12:28:20;;;;;;;6.28;5.13;;;13.00;99.90;;;;;;5100014;28;20039;-68
2023/10/24 12:30:46;;;;;;;5.35;4.60;;;13.00;99.90;;;;;;5104756;28;20084;-66
2023/10/24 12:33:12;;;;;;;6.25;4.50;;;13.00;99.90;;;;;;5110330;28;20052;-67
2023/10/24 12:35:38;;;;;;;5.88;4.65;;;13.00;99.90;;;;;;5082719;28;20040;-68
2023/10/24 12:38:05;;;;;;;6.88;5.03;;;12.90;99.90;;;;;;5073065;28;20411;-67
2023/10/24 12:40:30;;;;;;;5.70;4.60;;;12.90;99.90;;;;;;5074955;28;20047;-68
2023/10/24 12:42:56;;;;;;;6.03;4.40;;;12.90;99.90;;;;;;5090677;28;20043;-68